sensor_id;sensor_type;location;lat;lon;timestamp;P1;durP1;ratioP1;P2;durP2;ratioP2
43744;SDS011;29359;53.048;8.732;2022-07-12T00:01:27;1.65;;;1.55;;
43744;SDS011;29359;53.048;8.732;2022-07-12T00:03:29;2.40;;;1.73;;
43744;SDS011;29359;53.048;8.732;2022-07-12T00:05:31;2.00;;;1.60;;
43744;SDS011;29359;53.048;8.732;2022-07-12T00:07:32;1.60;;;1.50;;
43744;SDS011;29359;53.048;8.732;2022-07-12T00:09:34;4.28;;;1.65;;
43744;SDS011;29359;53.048;8.732;2022-07-12T00:11:35;2.33;;;1.35;;
43744;SDS011;29359;53.048;8.732;2022-07-12T00:13:38;1.40;;;1.30;;
43744;SDS011;29359;53.048;8.732;2022-07-12T00:15:39;1.92;;;1.50;;
43744;SDS011;29359;53.048;8.732;2022-07-12T00:17:41;1.50;;;1.40;;
43744;SDS011;29359;53.048;8.732;2022-07-12T00:19:43;2.15;;;1.20;;
43744;SDS011;29359;53.048;8.732;2022-07-12T00:21:44;1.58;;;1.33;;
43744;SDS011;29359;53.048;8.732;2022-07-12T00:23:46;1.48;;;1.20;;
43744;SDS011;29359;53.048;8.732;2022-07-12T00:25:47;1.40;;;1.30;;
43744;SDS011;29359;53.048;8.732;2022-07-12T00:27:49;2.03;;;1.55;;
43744;SDS011;29359;53.048;8.732;2022-07-12T00:29:51;1.73;;;1.55;;
43744;SDS011;29359;53.048;8.732;2022-07-12T00:31:52;2.03;;;1.38;;
43744;SDS011;29359;53.048;8.732;2022-07-12T00:33:54;2.00;;;1.42;;
43744;SDS011;29359;53.048;8.732;2022-07-12T00:35:56;2.47;;;1.77;;
43744;SDS011;29359;53.048;8.732;2022-07-12T00:37:57;1.50;;;1.40;;
43744;SDS011;29359;53.048;8.732;2022-07-12T00:39:59;1.50;;;1.40;;
43744;SDS011;29359;53.048;8.732;2022-07-12T00:42:00;2.75;;;1.60;;
43744;SDS011;29359;53.048;8.732;2022-07-12T00:44:02;1.88;;;1.77;;
43744;SDS011;29359;53.048;8.732;2022-07-12T00:46:03;3.92;;;1.92;;
43744;SDS011;29359;53.048;8.732;2022-07-12T00:48:06;2.00;;;1.90;;
43744;SDS011;29359;53.048;8.732;2022-07-12T00:50:08;2.03;;;1.70;;
43744;SDS011;29359;53.048;8.732;2022-07-12T00:52:11;2.00;;;1.90;;
43744;SDS011;29359;53.048;8.732;2022-07-12T00:54:13;2.20;;;2.00;;
43744;SDS011;29359;53.048;8.732;2022-07-12T00:56:16;2.03;;;1.83;;
43744;SDS011;29359;53.048;8.732;2022-07-12T00:58:18;1.85;;;1.75;;
43744;SDS011;29359;53.048;8.732;2022-07-12T01:00:25;1.83;;;1.73;;
43744;SDS011;29359;53.048;8.732;2022-07-12T01:02:27;2.83;;;2.00;;
43744;SDS011;29359;53.048;8.732;2022-07-12T01:04:29;1.88;;;1.77;;
43744;SDS011;29359;53.048;8.732;2022-07-12T01:06:31;2.22;;;2.08;;
43744;SDS011;29359;53.048;8.732;2022-07-12T01:08:34;2.35;;;1.67;;
43744;SDS011;29359;53.048;8.732;2022-07-12T01:10:36;1.92;;;1.83;;
43744;SDS011;29359;53.048;8.732;2022-07-12T01:12:39;3.30;;;2.05;;
43744;SDS011;29359;53.048;8.732;2022-07-12T01:14:41;2.08;;;1.88;;
43744;SDS011;29359;53.048;8.732;2022-07-12T01:16:43;1.70;;;1.60;;
43744;SDS011;29359;53.048;8.732;2022-07-12T01:18:45;1.63;;;1.50;;
43744;SDS011;29359;53.048;8.732;2022-07-12T01:20:47;1.85;;;1.60;;
43744;SDS011;29359;53.048;8.732;2022-07-12T01:22:52;2.05;;;1.90;;
43744;SDS011;29359;53.048;8.732;2022-07-12T01:24:56;1.75;;;1.45;;
43744;SDS011;29359;53.048;8.732;2022-07-12T01:26:58;2.33;;;1.30;;
43744;SDS011;29359;53.048;8.732;2022-07-12T01:28:59;1.65;;;1.55;;
43744;SDS011;29359;53.048;8.732;2022-07-12T01:31:01;1.67;;;1.55;;
43744;SDS011;29359;53.048;8.732;2022-07-12T01:33:03;1.52;;;1.40;;
43744;SDS011;29359;53.048;8.732;2022-07-12T01:35:06;1.33;;;1.10;;
43744;SDS011;29359;53.048;8.732;2022-07-12T01:37:08;4.30;;;1.90;;
43744;SDS011;29359;53.048;8.732;2022-07-12T01:39:10;1.70;;;1.50;;
43744;SDS011;29359;53.048;8.732;2022-07-12T01:41:12;1.98;;;1.67;;
43744;SDS011;29359;53.048;8.732;2022-07-12T01:43:14;3.50;;;1.70;;
43744;SDS011;29359;53.048;8.732;2022-07-12T01:45:15;1.40;;;1.30;;
43744;SDS011;29359;53.048;8.732;2022-07-12T01:47:18;1.65;;;1.55;;
43744;SDS011;29359;53.048;8.732;2022-07-12T01:49:20;4.63;;;1.67;;
43744;SDS011;29359;53.048;8.732;2022-07-12T01:51:22;1.40;;;1.30;;
43744;SDS011;29359;53.048;8.732;2022-07-12T01:53:23;1.35;;;1.25;;
43744;SDS011;29359;53.048;8.732;2022-07-12T01:55:25;3.10;;;1.20;;
43744;SDS011;29359;53.048;8.732;2022-07-12T01:57:27;1.67;;;1.35;;
43744;SDS011;29359;53.048;8.732;2022-07-12T01:59:29;1.40;;;1.30;;
43744;SDS011;29359;53.048;8.732;2022-07-12T02:01:30;1.38;;;1.27;;
43744;SDS011;29359;53.048;8.732;2022-07-12T02:03:35;1.75;;;1.38;;
43744;SDS011;29359;53.048;8.732;2022-07-12T02:05:38;1.52;;;1.42;;
43744;SDS011;29359;53.048;8.732;2022-07-12T02:07:40;1.50;;;1.40;;
43744;SDS011;29359;53.048;8.732;2022-07-12T02:09:41;2.80;;;2.33;;
43744;SDS011;29359;53.048;8.732;2022-07-12T02:11:43;2.80;;;2.60;;
43744;SDS011;29359;53.048;8.732;2022-07-12T02:13:46;2.78;;;2.58;;
43744;SDS011;29359;53.048;8.732;2022-07-12T02:15:48;2.60;;;2.40;;
43744;SDS011;29359;53.048;8.732;2022-07-12T02:17:50;2.67;;;2.50;;
43744;SDS011;29359;53.048;8.732;2022-07-12T02:19:52;3.42;;;2.30;;
43744;SDS011;29359;53.048;8.732;2022-07-12T02:21:54;3.08;;;2.88;;
43744;SDS011;29359;53.048;8.732;2022-07-12T02:23:55;3.88;;;2.55;;
43744;SDS011;29359;53.048;8.732;2022-07-12T02:25:57;2.88;;;2.67;;
43744;SDS011;29359;53.048;8.732;2022-07-12T02:27:59;2.92;;;2.72;;
43744;SDS011;29359;53.048;8.732;2022-07-12T02:30:00;3.20;;;2.83;;
43744;SDS011;29359;53.048;8.732;2022-07-12T02:32:02;2.97;;;2.75;;
43744;SDS011;29359;53.048;8.732;2022-07-12T02:34:04;2.65;;;2.45;;
43744;SDS011;29359;53.048;8.732;2022-07-12T02:36:06;2.92;;;2.60;;
43744;SDS011;29359;53.048;8.732;2022-07-12T02:38:08;3.15;;;2.85;;
43744;SDS011;29359;53.048;8.732;2022-07-12T02:40:10;3.05;;;2.85;;
43744;SDS011;29359;53.048;8.732;2022-07-12T02:42:30;3.20;;;2.90;;
43744;SDS011;29359;53.048;8.732;2022-07-12T02:44:32;4.05;;;3.20;;
43744;SDS011;29359;53.048;8.732;2022-07-12T02:46:34;3.22;;;3.03;;
43744;SDS011;29359;53.048;8.732;2022-07-12T02:48:37;3.10;;;2.90;;
43744;SDS011;29359;53.048;8.732;2022-07-12T02:50:39;3.65;;;3.35;;
43744;SDS011;29359;53.048;8.732;2022-07-12T02:52:41;4.15;;;3.13;;
43744;SDS011;29359;53.048;8.732;2022-07-12T02:54:42;3.42;;;2.83;;
43744;SDS011;29359;53.048;8.732;2022-07-12T02:56:45;2.95;;;2.75;;
43744;SDS011;29359;53.048;8.732;2022-07-12T02:58:46;2.70;;;2.50;;
43744;SDS011;29359;53.048;8.732;2022-07-12T03:00:48;2.72;;;2.53;;
43744;SDS011;29359;53.048;8.732;2022-07-12T03:02:49;3.08;;;2.88;;
43744;SDS011;29359;53.048;8.732;2022-07-12T03:04:52;3.63;;;3.33;;
43744;SDS011;29359;53.048;8.732;2022-07-12T03:06:53;4.40;;;4.00;;
43744;SDS011;29359;53.048;8.732;2022-07-12T03:08:55;4.30;;;3.92;;
43744;SDS011;29359;53.048;8.732;2022-07-12T03:10:56;4.47;;;4.18;;
43744;SDS011;29359;53.048;8.732;2022-07-12T03:12:58;4.78;;;4.38;;
43744;SDS011;29359;53.048;8.732;2022-07-12T03:14:59;4.47;;;4.18;;
43744;SDS011;29359;53.048;8.732;2022-07-12T03:17:01;4.78;;;4.38;;
43744;SDS011;29359;53.048;8.732;2022-07-12T03:19:03;5.30;;;4.80;;
43744;SDS011;29359;53.048;8.732;2022-07-12T03:21:04;5.18;;;4.78;;
43744;SDS011;29359;53.048;8.732;2022-07-12T03:23:06;5.80;;;3.67;;
43744;SDS011;29359;53.048;8.732;2022-07-12T03:25:07;3.67;;;3.40;;
43744;SDS011;29359;53.048;8.732;2022-07-12T03:27:09;3.92;;;3.22;;
43744;SDS011;29359;53.048;8.732;2022-07-12T03:29:11;4.32;;;4.03;;
43744;SDS011;29359;53.048;8.732;2022-07-12T03:31:12;4.75;;;4.32;;
43744;SDS011;29359;53.048;8.732;2022-07-12T03:33:14;4.38;;;4.07;;
43744;SDS011;29359;53.048;8.732;2022-07-12T03:35:16;3.65;;;3.45;;
43744;SDS011;29359;53.048;8.732;2022-07-12T03:37:17;3.38;;;3.05;;
43744;SDS011;29359;53.048;8.732;2022-07-12T03:39:19;2.92;;;2.72;;
43744;SDS011;29359;53.048;8.732;2022-07-12T03:41:21;2.58;;;2.38;;
43744;SDS011;29359;53.048;8.732;2022-07-12T03:43:22;4.20;;;2.35;;
43744;SDS011;29359;53.048;8.732;2022-07-12T03:45:24;2.25;;;2.15;;
43744;SDS011;29359;53.048;8.732;2022-07-12T03:47:25;3.13;;;2.50;;
43744;SDS011;29359;53.048;8.732;2022-07-12T03:49:27;2.25;;;2.15;;
43744;SDS011;29359;53.048;8.732;2022-07-12T03:51:28;2.75;;;2.55;;
43744;SDS011;29359;53.048;8.732;2022-07-12T03:53:30;3.22;;;2.50;;
43744;SDS011;29359;53.048;8.732;2022-07-12T03:55:31;3.00;;;2.80;;
43744;SDS011;29359;53.048;8.732;2022-07-12T03:57:33;2.67;;;2.30;;
43744;SDS011;29359;53.048;8.732;2022-07-12T03:59:34;2.63;;;2.53;;
43744;SDS011;29359;53.048;8.732;2022-07-12T04:01:42;2.75;;;2.53;;
43744;SDS011;29359;53.048;8.732;2022-07-12T04:03:44;2.75;;;2.40;;
43744;SDS011;29359;53.048;8.732;2022-07-12T04:05:46;4.05;;;3.25;;
43744;SDS011;29359;53.048;8.732;2022-07-12T04:07:47;3.85;;;3.60;;
43744;SDS011;29359;53.048;8.732;2022-07-12T04:09:49;4.13;;;3.20;;
43744;SDS011;29359;53.048;8.732;2022-07-12T04:11:50;4.07;;;3.78;;
43744;SDS011;29359;53.048;8.732;2022-07-12T04:13:52;3.70;;;3.40;;
43744;SDS011;29359;53.048;8.732;2022-07-12T04:15:53;3.88;;;3.67;;
43744;SDS011;29359;53.048;8.732;2022-07-12T04:17:56;4.10;;;3.70;;
43744;SDS011;29359;53.048;8.732;2022-07-12T04:19:58;3.40;;;3.10;;
43744;SDS011;29359;53.048;8.732;2022-07-12T04:21:59;2.95;;;2.65;;
43744;SDS011;29359;53.048;8.732;2022-07-12T04:24:01;2.70;;;2.35;;
43744;SDS011;29359;53.048;8.732;2022-07-12T04:26:03;2.80;;;2.60;;
43744;SDS011;29359;53.048;8.732;2022-07-12T04:28:05;2.40;;;2.30;;
43744;SDS011;29359;53.048;8.732;2022-07-12T04:30:06;2.80;;;2.60;;
43744;SDS011;29359;53.048;8.732;2022-07-12T04:32:09;2.80;;;2.60;;
43744;SDS011;29359;53.048;8.732;2022-07-12T04:34:11;2.45;;;2.25;;
43744;SDS011;29359;53.048;8.732;2022-07-12T04:36:13;2.45;;;2.35;;
43744;SDS011;29359;53.048;8.732;2022-07-12T04:38:14;2.78;;;2.58;;
43744;SDS011;29359;53.048;8.732;2022-07-12T04:40:16;2.97;;;2.55;;
43744;SDS011;29359;53.048;8.732;2022-07-12T04:42:17;2.92;;;2.13;;
43744;SDS011;29359;53.048;8.732;2022-07-12T04:44:19;2.80;;;2.60;;
43744;SDS011;29359;53.048;8.732;2022-07-12T04:46:21;2.78;;;2.58;;
43744;SDS011;29359;53.048;8.732;2022-07-12T04:48:22;2.83;;;2.60;;
43744;SDS011;29359;53.048;8.732;2022-07-12T04:50:24;2.83;;;2.63;;
43744;SDS011;29359;53.048;8.732;2022-07-12T04:52:25;2.78;;;2.58;;
43744;SDS011;29359;53.048;8.732;2022-07-12T04:54:27;3.17;;;2.88;;
43744;SDS011;29359;53.048;8.732;2022-07-12T04:56:28;2.10;;;2.00;;
43744;SDS011;29359;53.048;8.732;2022-07-12T04:58:30;3.03;;;2.72;;
43744;SDS011;29359;53.048;8.732;2022-07-12T05:00:31;2.97;;;2.10;;
43744;SDS011;29359;53.048;8.732;2022-07-12T05:02:33;2.00;;;1.90;;
43744;SDS011;29359;53.048;8.732;2022-07-12T05:04:35;3.75;;;2.50;;
43744;SDS011;29359;53.048;8.732;2022-07-12T05:06:36;2.85;;;2.65;;
43744;SDS011;29359;53.048;8.732;2022-07-12T05:08:38;2.70;;;2.50;;
43744;SDS011;29359;53.048;8.732;2022-07-12T05:10:40;6.72;;;2.40;;
43744;SDS011;29359;53.048;8.732;2022-07-12T05:12:42;2.97;;;2.70;;
43744;SDS011;29359;53.048;8.732;2022-07-12T05:14:43;3.20;;;2.90;;
43744;SDS011;29359;53.048;8.732;2022-07-12T05:16:45;3.80;;;3.55;;
43744;SDS011;29359;53.048;8.732;2022-07-12T05:18:46;4.00;;;3.60;;
43744;SDS011;29359;53.048;8.732;2022-07-12T05:20:48;4.28;;;3.97;;
43744;SDS011;29359;53.048;8.732;2022-07-12T05:22:52;4.57;;;4.18;;
43744;SDS011;29359;53.048;8.732;2022-07-12T05:24:56;6.28;;;3.85;;
43744;SDS011;29359;53.048;8.732;2022-07-12T05:26:58;5.45;;;5.05;;
43744;SDS011;29359;53.048;8.732;2022-07-12T05:28:59;6.53;;;6.03;;
43744;SDS011;29359;53.048;8.732;2022-07-12T05:31:01;7.13;;;6.57;;
43744;SDS011;29359;53.048;8.732;2022-07-12T05:33:03;5.75;;;5.25;;
43744;SDS011;29359;53.048;8.732;2022-07-12T05:35:04;7.03;;;6.30;;
43744;SDS011;29359;53.048;8.732;2022-07-12T05:37:06;6.22;;;5.72;;
43744;SDS011;29359;53.048;8.732;2022-07-12T05:39:08;6.95;;;6.25;;
43744;SDS011;29359;53.048;8.732;2022-07-12T05:41:09;7.30;;;6.70;;
43744;SDS011;29359;53.048;8.732;2022-07-12T05:43:11;6.40;;;6.00;;
43744;SDS011;29359;53.048;8.732;2022-07-12T05:45:12;7.07;;;6.47;;
43744;SDS011;29359;53.048;8.732;2022-07-12T05:47:14;5.40;;;4.90;;
43744;SDS011;29359;53.048;8.732;2022-07-12T05:49:15;7.97;;;5.07;;
43744;SDS011;29359;53.048;8.732;2022-07-12T05:51:17;5.63;;;5.22;;
43744;SDS011;29359;53.048;8.732;2022-07-12T05:53:37;6.13;;;5.63;;
43744;SDS011;29359;53.048;8.732;2022-07-12T05:55:38;8.05;;;5.40;;
43744;SDS011;29359;53.048;8.732;2022-07-12T05:57:40;10.07;;;5.57;;
43744;SDS011;29359;53.048;8.732;2022-07-12T05:59:41;5.80;;;5.40;;
43744;SDS011;29359;53.048;8.732;2022-07-12T06:01:44;6.30;;;5.90;;
43744;SDS011;29359;53.048;8.732;2022-07-12T06:03:45;6.85;;;6.28;;
43744;SDS011;29359;53.048;8.732;2022-07-12T06:05:47;5.70;;;5.30;;
43744;SDS011;29359;53.048;8.732;2022-07-12T06:07:49;6.65;;;5.95;;
43744;SDS011;29359;53.048;8.732;2022-07-12T06:09:50;5.97;;;5.57;;
43744;SDS011;29359;53.048;8.732;2022-07-12T06:11:52;6.30;;;5.80;;
43744;SDS011;29359;53.048;8.732;2022-07-12T06:13:53;6.43;;;5.93;;
43744;SDS011;29359;53.048;8.732;2022-07-12T06:15:55;6.03;;;5.63;;
43744;SDS011;29359;53.048;8.732;2022-07-12T06:17:58;6.45;;;5.95;;
43744;SDS011;29359;53.048;8.732;2022-07-12T06:19:59;6.22;;;5.55;;
43744;SDS011;29359;53.048;8.732;2022-07-12T06:22:01;5.32;;;4.93;;
43744;SDS011;29359;53.048;8.732;2022-07-12T06:24:03;5.53;;;5.13;;
43744;SDS011;29359;53.048;8.732;2022-07-12T06:26:05;6.18;;;5.57;;
43744;SDS011;29359;53.048;8.732;2022-07-12T06:28:06;7.18;;;6.20;;
43744;SDS011;29359;53.048;8.732;2022-07-12T06:30:08;8.95;;;5.88;;
43744;SDS011;29359;53.048;8.732;2022-07-12T06:32:10;5.85;;;5.45;;
43744;SDS011;29359;53.048;8.732;2022-07-12T06:34:11;6.20;;;5.75;;
43744;SDS011;29359;53.048;8.732;2022-07-12T06:36:13;5.70;;;5.30;;
43744;SDS011;29359;53.048;8.732;2022-07-12T06:38:15;5.60;;;5.20;;
43744;SDS011;29359;53.048;8.732;2022-07-12T06:40:17;6.13;;;5.50;;
43744;SDS011;29359;53.048;8.732;2022-07-12T06:42:18;6.25;;;5.65;;
43744;SDS011;29359;53.048;8.732;2022-07-12T06:44:20;5.60;;;5.15;;
43744;SDS011;29359;53.048;8.732;2022-07-12T06:46:21;6.30;;;5.90;;
43744;SDS011;29359;53.048;8.732;2022-07-12T06:48:23;6.15;;;5.65;;
43744;SDS011;29359;53.048;8.732;2022-07-12T06:50:25;5.13;;;4.80;;
43744;SDS011;29359;53.048;8.732;2022-07-12T06:52:29;5.30;;;5.00;;
43744;SDS011;29359;53.048;8.732;2022-07-12T06:54:31;5.38;;;4.97;;
43744;SDS011;29359;53.048;8.732;2022-07-12T06:56:33;5.57;;;5.07;;
43744;SDS011;29359;53.048;8.732;2022-07-12T06:58:34;5.88;;;5.38;;
43744;SDS011;29359;53.048;8.732;2022-07-12T07:00:36;5.65;;;5.15;;
43744;SDS011;29359;53.048;8.732;2022-07-12T07:02:38;5.70;;;5.28;;
43744;SDS011;29359;53.048;8.732;2022-07-12T07:04:41;5.90;;;5.30;;
43744;SDS011;29359;53.048;8.732;2022-07-12T07:06:42;7.75;;;5.10;;
43744;SDS011;29359;53.048;8.732;2022-07-12T07:08:44;6.15;;;4.97;;
43744;SDS011;29359;53.048;8.732;2022-07-12T07:10:46;5.40;;;4.90;;
43744;SDS011;29359;53.048;8.732;2022-07-12T07:12:48;5.32;;;4.93;;
43744;SDS011;29359;53.048;8.732;2022-07-12T07:14:51;5.78;;;5.38;;
43744;SDS011;29359;53.048;8.732;2022-07-12T07:16:53;5.28;;;4.88;;
43744;SDS011;29359;53.048;8.732;2022-07-12T07:18:55;5.20;;;4.80;;
43744;SDS011;29359;53.048;8.732;2022-07-12T07:20:56;5.47;;;5.07;;
43744;SDS011;29359;53.048;8.732;2022-07-12T07:22:58;5.28;;;4.20;;
43744;SDS011;29359;53.048;8.732;2022-07-12T07:24:59;4.75;;;4.22;;
43744;SDS011;29359;53.048;8.732;2022-07-12T07:27:01;4.00;;;3.70;;
43744;SDS011;29359;53.048;8.732;2022-07-12T07:29:03;4.00;;;3.70;;
43744;SDS011;29359;53.048;8.732;2022-07-12T07:31:23;3.63;;;3.00;;
43744;SDS011;29359;53.048;8.732;2022-07-12T07:33:25;3.58;;;3.28;;
43744;SDS011;29359;53.048;8.732;2022-07-12T07:35:26;3.70;;;3.17;;
43744;SDS011;29359;53.048;8.732;2022-07-12T07:37:28;3.83;;;3.05;;
43744;SDS011;29359;53.048;8.732;2022-07-12T07:39:30;3.25;;;3.03;;
43744;SDS011;29359;53.048;8.732;2022-07-12T07:41:32;3.80;;;2.60;;
43744;SDS011;29359;53.048;8.732;2022-07-12T07:43:33;3.30;;;2.35;;
43744;SDS011;29359;53.048;8.732;2022-07-12T07:45:35;1.90;;;1.70;;
43744;SDS011;29359;53.048;8.732;2022-07-12T07:47:46;2.08;;;1.65;;
43744;SDS011;29359;53.048;8.732;2022-07-12T07:50:09;2.75;;;2.10;;
43744;SDS011;29359;53.048;8.732;2022-07-12T07:52:11;1.73;;;1.50;;
43744;SDS011;29359;53.048;8.732;2022-07-12T07:54:12;2.42;;;1.60;;
43744;SDS011;29359;53.048;8.732;2022-07-12T07:56:14;1.60;;;1.38;;
43744;SDS011;29359;53.048;8.732;2022-07-12T07:58:15;3.88;;;1.80;;
43744;SDS011;29359;53.048;8.732;2022-07-12T08:00:17;3.78;;;2.05;;
43744;SDS011;29359;53.048;8.732;2022-07-12T08:02:18;2.08;;;1.30;;
43744;SDS011;29359;53.048;8.732;2022-07-12T08:04:20;4.75;;;1.73;;
43744;SDS011;29359;53.048;8.732;2022-07-12T08:06:22;1.60;;;1.50;;
43744;SDS011;29359;53.048;8.732;2022-07-12T08:08:24;1.98;;;1.88;;
43744;SDS011;29359;53.048;8.732;2022-07-12T08:10:26;1.70;;;1.60;;
43744;SDS011;29359;53.048;8.732;2022-07-12T08:12:27;1.50;;;1.40;;
43744;SDS011;29359;53.048;8.732;2022-07-12T08:14:29;1.60;;;1.40;;
43744;SDS011;29359;53.048;8.732;2022-07-12T08:16:31;2.92;;;1.27;;
43744;SDS011;29359;53.048;8.732;2022-07-12T08:18:33;2.22;;;1.15;;
43744;SDS011;29359;53.048;8.732;2022-07-12T08:20:35;4.53;;;1.50;;
43744;SDS011;29359;53.048;8.732;2022-07-12T08:22:51;1.45;;;1.20;;
43744;SDS011;29359;53.048;8.732;2022-07-12T08:24:53;3.35;;;1.40;;
43744;SDS011;29359;53.048;8.732;2022-07-12T08:26:54;0.88;;;0.88;;
43744;SDS011;29359;53.048;8.732;2022-07-12T08:28:56;3.08;;;1.00;;
43744;SDS011;29359;53.048;8.732;2022-07-12T08:30:57;2.92;;;1.05;;
43744;SDS011;29359;53.048;8.732;2022-07-12T08:32:59;2.35;;;1.40;;
43744;SDS011;29359;53.048;8.732;2022-07-12T08:35:01;1.80;;;1.00;;
43744;SDS011;29359;53.048;8.732;2022-07-12T08:37:03;1.15;;;0.82;;
43744;SDS011;29359;53.048;8.732;2022-07-12T08:39:05;10.57;;;1.27;;
43744;SDS011;29359;53.048;8.732;2022-07-12T08:41:06;4.65;;;0.90;;
43744;SDS011;29359;53.048;8.732;2022-07-12T08:43:08;1.13;;;0.98;;
43744;SDS011;29359;53.048;8.732;2022-07-12T08:45:10;1.15;;;0.70;;
43744;SDS011;29359;53.048;8.732;2022-07-12T08:47:12;1.05;;;0.82;;
43744;SDS011;29359;53.048;8.732;2022-07-12T08:49:13;1.45;;;0.82;;
43744;SDS011;29359;53.048;8.732;2022-07-12T08:51:18;1.70;;;1.00;;
43744;SDS011;29359;53.048;8.732;2022-07-12T08:53:20;1.00;;;0.63;;
43744;SDS011;29359;53.048;8.732;2022-07-12T08:57:30;1.00;;;0.90;;
43744;SDS011;29359;53.048;8.732;2022-07-12T08:59:32;1.00;;;0.75;;
43744;SDS011;29359;53.048;8.732;2022-07-12T09:03:46;2.70;;;0.63;;
43744;SDS011;29359;53.048;8.732;2022-07-12T09:05:52;3.85;;;1.13;;
43744;SDS011;29359;53.048;8.732;2022-07-12T09:08:14;0.75;;;0.75;;
43744;SDS011;29359;53.048;8.732;2022-07-12T09:10:16;1.85;;;0.90;;
43744;SDS011;29359;53.048;8.732;2022-07-12T09:12:21;0.90;;;0.90;;
43744;SDS011;29359;53.048;8.732;2022-07-12T09:14:23;1.00;;;0.73;;
43744;SDS011;29359;53.048;8.732;2022-07-12T09:16:25;1.52;;;0.73;;
43744;SDS011;29359;53.048;8.732;2022-07-12T09:18:27;3.03;;;1.02;;
43744;SDS011;29359;53.048;8.732;2022-07-12T09:20:32;7.78;;;1.00;;
43744;SDS011;29359;53.048;8.732;2022-07-12T09:22:37;5.43;;;0.90;;
43744;SDS011;29359;53.048;8.732;2022-07-12T09:24:39;1.95;;;0.90;;
43744;SDS011;29359;53.048;8.732;2022-07-12T09:26:40;2.20;;;0.88;;
43744;SDS011;29359;53.048;8.732;2022-07-12T09:28:42;0.75;;;0.75;;
43744;SDS011;29359;53.048;8.732;2022-07-12T09:30:48;1.20;;;0.80;;
43744;SDS011;29359;53.048;8.732;2022-07-12T09:32:51;3.30;;;1.00;;
43744;SDS011;29359;53.048;8.732;2022-07-12T09:35:12;2.28;;;0.80;;
43744;SDS011;29359;53.048;8.732;2022-07-12T09:37:32;2.70;;;0.90;;
43744;SDS011;29359;53.048;8.732;2022-07-12T09:39:40;0.97;;;0.80;;
43744;SDS011;29359;53.048;8.732;2022-07-12T09:41:43;3.05;;;1.38;;
43744;SDS011;29359;53.048;8.732;2022-07-12T09:43:45;2.45;;;1.00;;
43744;SDS011;29359;53.048;8.732;2022-07-12T09:45:47;1.80;;;1.25;;
43744;SDS011;29359;53.048;8.732;2022-07-12T09:47:49;1.52;;;1.13;;
43744;SDS011;29359;53.048;8.732;2022-07-12T09:49:53;2.25;;;0.82;;
43744;SDS011;29359;53.048;8.732;2022-07-12T09:51:55;0.73;;;0.68;;
43744;SDS011;29359;53.048;8.732;2022-07-12T09:53:57;1.10;;;1.00;;
43744;SDS011;29359;53.048;8.732;2022-07-12T09:56:07;0.93;;;0.82;;
43744;SDS011;29359;53.048;8.732;2022-07-12T09:58:11;0.88;;;0.73;;
43744;SDS011;29359;53.048;8.732;2022-07-12T10:00:14;1.58;;;0.77;;
43744;SDS011;29359;53.048;8.732;2022-07-12T10:02:16;1.77;;;0.70;;
43744;SDS011;29359;53.048;8.732;2022-07-12T10:04:19;0.68;;;0.60;;
43744;SDS011;29359;53.048;8.732;2022-07-12T10:08:24;2.33;;;1.38;;
43744;SDS011;29359;53.048;8.732;2022-07-12T10:10:26;1.05;;;0.95;;
43744;SDS011;29359;53.048;8.732;2022-07-12T10:12:29;1.17;;;0.50;;
43744;SDS011;29359;53.048;8.732;2022-07-12T10:14:31;1.98;;;0.70;;
43744;SDS011;29359;53.048;8.732;2022-07-12T10:16:33;0.88;;;0.70;;
43744;SDS011;29359;53.048;8.732;2022-07-12T10:18:36;1.73;;;0.63;;
43744;SDS011;29359;53.048;8.732;2022-07-12T10:20:41;0.68;;;0.40;;
43744;SDS011;29359;53.048;8.732;2022-07-12T10:22:44;0.75;;;0.57;;
43744;SDS011;29359;53.048;8.732;2022-07-12T10:24:47;1.58;;;0.80;;
43744;SDS011;29359;53.048;8.732;2022-07-12T10:27:26;2.03;;;0.80;;
43744;SDS011;29359;53.048;8.732;2022-07-12T10:29:22;1.27;;;0.90;;
43744;SDS011;29359;53.048;8.732;2022-07-12T10:31:24;1.40;;;0.90;;
43744;SDS011;29359;53.048;8.732;2022-07-12T10:33:28;2.15;;;1.00;;
43744;SDS011;29359;53.048;8.732;2022-07-12T10:35:30;2.08;;;0.90;;
43744;SDS011;29359;53.048;8.732;2022-07-12T10:37:33;2.58;;;0.80;;
43744;SDS011;29359;53.048;8.732;2022-07-12T10:39:36;0.50;;;0.50;;
43744;SDS011;29359;53.048;8.732;2022-07-12T10:41:38;1.80;;;0.70;;
43744;SDS011;29359;53.048;8.732;2022-07-12T10:43:40;5.97;;;0.80;;
43744;SDS011;29359;53.048;8.732;2022-07-12T10:46:00;2.60;;;0.65;;
43744;SDS011;29359;53.048;8.732;2022-07-12T10:50:18;0.73;;;0.70;;
43744;SDS011;29359;53.048;8.732;2022-07-12T10:52:24;2.78;;;0.60;;
43744;SDS011;29359;53.048;8.732;2022-07-12T10:54:27;0.93;;;0.50;;
43744;SDS011;29359;53.048;8.732;2022-07-12T10:56:29;1.55;;;0.60;;
43744;SDS011;29359;53.048;8.732;2022-07-12T10:58:34;0.70;;;0.70;;
43744;SDS011;29359;53.048;8.732;2022-07-12T11:00:37;0.47;;;0.40;;
43744;SDS011;29359;53.048;8.732;2022-07-12T11:02:39;0.85;;;0.45;;
43744;SDS011;29359;53.048;8.732;2022-07-12T11:04:47;0.50;;;0.50;;
43744;SDS011;29359;53.048;8.732;2022-07-12T11:06:49;0.50;;;0.50;;
43744;SDS011;29359;53.048;8.732;2022-07-12T11:11:06;1.08;;;0.50;;
43744;SDS011;29359;53.048;8.732;2022-07-12T11:13:20;1.75;;;0.60;;
43744;SDS011;29359;53.048;8.732;2022-07-12T11:15:26;1.10;;;0.55;;
43744;SDS011;29359;53.048;8.732;2022-07-12T11:17:28;0.50;;;0.47;;
43744;SDS011;29359;53.048;8.732;2022-07-12T11:19:34;1.20;;;0.70;;
43744;SDS011;29359;53.048;8.732;2022-07-12T11:21:36;1.00;;;0.70;;
43744;SDS011;29359;53.048;8.732;2022-07-12T11:23:38;0.90;;;0.80;;
43744;SDS011;29359;53.048;8.732;2022-07-12T11:25:42;0.80;;;0.80;;
43744;SDS011;29359;53.048;8.732;2022-07-12T11:27:45;0.90;;;0.90;;
43744;SDS011;29359;53.048;8.732;2022-07-12T11:29:56;1.02;;;0.73;;
43744;SDS011;29359;53.048;8.732;2022-07-12T11:32:05;1.42;;;0.82;;
43744;SDS011;29359;53.048;8.732;2022-07-12T11:36:25;3.75;;;1.17;;
43744;SDS011;29359;53.048;8.732;2022-07-12T11:38:29;1.38;;;1.10;;
43744;SDS011;29359;53.048;8.732;2022-07-12T11:40:38;1.63;;;1.30;;
43744;SDS011;29359;53.048;8.732;2022-07-12T11:42:51;1.70;;;1.60;;
43744;SDS011;29359;53.048;8.732;2022-07-12T11:44:54;4.82;;;2.22;;
43744;SDS011;29359;53.048;8.732;2022-07-12T11:46:56;1.90;;;1.80;;
43744;SDS011;29359;53.048;8.732;2022-07-12T11:48:57;1.83;;;1.73;;
43744;SDS011;29359;53.048;8.732;2022-07-12T11:51:03;2.40;;;2.30;;
43744;SDS011;29359;53.048;8.732;2022-07-12T11:53:11;5.22;;;3.42;;
43744;SDS011;29359;53.048;8.732;2022-07-12T11:55:17;5.32;;;3.20;;
43744;SDS011;29359;53.048;8.732;2022-07-12T11:57:20;2.60;;;2.40;;
43744;SDS011;29359;53.048;8.732;2022-07-12T11:59:23;2.60;;;2.38;;
43744;SDS011;29359;53.048;8.732;2022-07-12T12:01:24;2.92;;;2.72;;
43744;SDS011;29359;53.048;8.732;2022-07-12T12:03:27;3.17;;;2.55;;
43744;SDS011;29359;53.048;8.732;2022-07-12T12:05:29;4.63;;;4.22;;
43744;SDS011;29359;53.048;8.732;2022-07-12T12:07:31;4.82;;;4.50;;
43744;SDS011;29359;53.048;8.732;2022-07-12T12:09:56;5.75;;;5.25;;
43744;SDS011;29359;53.048;8.732;2022-07-12T12:12:13;37.75;;;7.50;;
43744;SDS011;29359;53.048;8.732;2022-07-12T12:14:15;12.43;;;6.20;;
43744;SDS011;29359;53.048;8.732;2022-07-12T12:16:17;6.05;;;5.55;;
43744;SDS011;29359;53.048;8.732;2022-07-12T12:18:35;5.45;;;5.05;;
43744;SDS011;29359;53.048;8.732;2022-07-12T12:20:39;5.82;;;5.43;;
43744;SDS011;29359;53.048;8.732;2022-07-12T12:22:45;6.25;;;5.50;;
43744;SDS011;29359;53.048;8.732;2022-07-12T12:24:58;5.82;;;5.32;;
43744;SDS011;29359;53.048;8.732;2022-07-12T12:27:01;8.77;;;5.50;;
43744;SDS011;29359;53.048;8.732;2022-07-12T12:29:02;5.45;;;5.03;;
43744;SDS011;29359;53.048;8.732;2022-07-12T12:31:04;5.50;;;5.07;;
43744;SDS011;29359;53.048;8.732;2022-07-12T12:33:06;5.47;;;4.93;;
43744;SDS011;29359;53.048;8.732;2022-07-12T12:35:08;4.63;;;4.10;;